sensor_id;sensor_type;location;lat;lon;timestamp;P1;durP1;ratioP1;P2;durP2;ratioP2
32521;SDS011;18963;51.504;5.316;2022-10-16T00:01:20;7.38;;;5.68;;
32521;SDS011;18963;51.504;5.316;2022-10-16T00:03:48;7.57;;;5.68;;
32521;SDS011;18963;51.504;5.316;2022-10-16T00:06:15;8.20;;;6.13;;
32521;SDS011;18963;51.504;5.316;2022-10-16T00:08:42;9.40;;;5.70;;
32521;SDS011;18963;51.504;5.316;2022-10-16T00:11:16;8.65;;;5.45;;
32521;SDS011;18963;51.504;5.316;2022-10-16T00:13:44;7.87;;;5.60;;
32521;SDS011;18963;51.504;5.316;2022-10-16T00:16:11;8.63;;;6.40;;
32521;SDS011;18963;51.504;5.316;2022-10-16T00:18:38;7.30;;;5.32;;
32521;SDS011;18963;51.504;5.316;2022-10-16T00:21:08;7.75;;;5.53;;
32521;SDS011;18963;51.504;5.316;2022-10-16T00:23:36;8.60;;;5.80;;
32521;SDS011;18963;51.504;5.316;2022-10-16T00:26:02;6.65;;;5.78;;
32521;SDS011;18963;51.504;5.316;2022-10-16T00:28:31;7.18;;;5.53;;
32521;SDS011;18963;51.504;5.316;2022-10-16T00:30:57;6.63;;;5.22;;
32521;SDS011;18963;51.504;5.316;2022-10-16T00:35:48;9.57;;;6.45;;
32521;SDS011;18963;51.504;5.316;2022-10-16T00:38:15;7.43;;;5.53;;
32521;SDS011;18963;51.504;5.316;2022-10-16T00:43:12;6.35;;;5.25;;
32521;SDS011;18963;51.504;5.316;2022-10-16T00:45:39;6.35;;;5.07;;
32521;SDS011;18963;51.504;5.316;2022-10-16T00:48:06;6.40;;;5.03;;
32521;SDS011;18963;51.504;5.316;2022-10-16T00:50:37;6.07;;;5.00;;
32521;SDS011;18963;51.504;5.316;2022-10-16T00:53:04;7.60;;;5.38;;
32521;SDS011;18963;51.504;5.316;2022-10-16T00:57:56;6.85;;;4.80;;
32521;SDS011;18963;51.504;5.316;2022-10-16T01:00:24;6.18;;;4.32;;
32521;SDS011;18963;51.504;5.316;2022-10-16T01:02:54;6.93;;;4.95;;
32521;SDS011;18963;51.504;5.316;2022-10-16T01:05:42;7.85;;;4.55;;
32521;SDS011;18963;51.504;5.316;2022-10-16T01:08:15;5.72;;;4.38;;
32521;SDS011;18963;51.504;5.316;2022-10-16T01:13:21;5.43;;;4.30;;
32521;SDS011;18963;51.504;5.316;2022-10-16T01:15:58;5.85;;;4.63;;
32521;SDS011;18963;51.504;5.316;2022-10-16T01:21:03;5.90;;;4.80;;
32521;SDS011;18963;51.504;5.316;2022-10-16T01:29:18;6.85;;;4.30;;
32521;SDS011;18963;51.504;5.316;2022-10-16T01:31:45;5.93;;;4.65;;
32521;SDS011;18963;51.504;5.316;2022-10-16T01:34:18;7.32;;;4.18;;
32521;SDS011;18963;51.504;5.316;2022-10-16T01:36:51;6.13;;;4.25;;
32521;SDS011;18963;51.504;5.316;2022-10-16T01:39:21;6.65;;;4.15;;
32521;SDS011;18963;51.504;5.316;2022-10-16T01:42:14;5.28;;;3.92;;
32521;SDS011;18963;51.504;5.316;2022-10-16T01:44:38;6.00;;;4.35;;
32521;SDS011;18963;51.504;5.316;2022-10-16T01:47:05;7.93;;;4.43;;
32521;SDS011;18963;51.504;5.316;2022-10-16T01:49:34;4.38;;;3.88;;
32521;SDS011;18963;51.504;5.316;2022-10-16T01:52:04;8.38;;;3.90;;
32521;SDS011;18963;51.504;5.316;2022-10-16T01:54:34;5.72;;;3.65;;
32521;SDS011;18963;51.504;5.316;2022-10-16T01:57:03;4.57;;;4.03;;
32521;SDS011;18963;51.504;5.316;2022-10-16T01:59:31;5.43;;;3.95;;
32521;SDS011;18963;51.504;5.316;2022-10-16T02:01:59;5.35;;;3.83;;
32521;SDS011;18963;51.504;5.316;2022-10-16T02:04:28;5.20;;;3.70;;
32521;SDS011;18963;51.504;5.316;2022-10-16T02:07:05;7.70;;;4.07;;
32521;SDS011;18963;51.504;5.316;2022-10-16T02:09:34;5.38;;;3.50;;
32521;SDS011;18963;51.504;5.316;2022-10-16T02:12:03;6.78;;;4.03;;
32521;SDS011;18963;51.504;5.316;2022-10-16T02:14:38;8.98;;;4.00;;
32521;SDS011;18963;51.504;5.316;2022-10-16T02:17:14;5.50;;;3.58;;
32521;SDS011;18963;51.504;5.316;2022-10-16T02:19:42;4.53;;;3.65;;
32521;SDS011;18963;51.504;5.316;2022-10-16T02:22:10;6.28;;;3.95;;
32521;SDS011;18963;51.504;5.316;2022-10-16T02:24:49;4.60;;;3.45;;
32521;SDS011;18963;51.504;5.316;2022-10-16T02:27:29;4.65;;;4.00;;
32521;SDS011;18963;51.504;5.316;2022-10-16T02:30:02;4.65;;;3.60;;
32521;SDS011;18963;51.504;5.316;2022-10-16T02:32:43;3.97;;;3.40;;
32521;SDS011;18963;51.504;5.316;2022-10-16T02:35:11;5.93;;;3.40;;
32521;SDS011;18963;51.504;5.316;2022-10-16T02:37:37;4.65;;;3.60;;
32521;SDS011;18963;51.504;5.316;2022-10-16T02:40:05;4.38;;;3.40;;
32521;SDS011;18963;51.504;5.316;2022-10-16T02:42:36;4.97;;;3.20;;
32521;SDS011;18963;51.504;5.316;2022-10-16T02:45:03;4.93;;;3.63;;
32521;SDS011;18963;51.504;5.316;2022-10-16T02:47:33;4.75;;;3.55;;
32521;SDS011;18963;51.504;5.316;2022-10-16T02:52:24;5.18;;;3.70;;
32521;SDS011;18963;51.504;5.316;2022-10-16T02:54:50;4.70;;;3.38;;
32521;SDS011;18963;51.504;5.316;2022-10-16T02:57:16;3.97;;;3.28;;
32521;SDS011;18963;51.504;5.316;2022-10-16T02:59:43;6.05;;;3.90;;
32521;SDS011;18963;51.504;5.316;2022-10-16T03:04:34;5.55;;;3.50;;
32521;SDS011;18963;51.504;5.316;2022-10-16T03:06:59;6.90;;;3.88;;
32521;SDS011;18963;51.504;5.316;2022-10-16T03:09:25;5.10;;;3.70;;
32521;SDS011;18963;51.504;5.316;2022-10-16T03:11:51;5.18;;;3.70;;
32521;SDS011;18963;51.504;5.316;2022-10-16T03:14:17;5.20;;;3.63;;
32521;SDS011;18963;51.504;5.316;2022-10-16T03:16:42;5.13;;;3.83;;
32521;SDS011;18963;51.504;5.316;2022-10-16T03:19:08;4.70;;;3.60;;
32521;SDS011;18963;51.504;5.316;2022-10-16T03:23:59;4.43;;;3.63;;
32521;SDS011;18963;51.504;5.316;2022-10-16T03:26:25;4.00;;;3.60;;
32521;SDS011;18963;51.504;5.316;2022-10-16T03:28:50;5.93;;;4.00;;
32521;SDS011;18963;51.504;5.316;2022-10-16T03:31:16;4.85;;;3.40;;
32521;SDS011;18963;51.504;5.316;2022-10-16T03:33:41;5.30;;;3.80;;
32521;SDS011;18963;51.504;5.316;2022-10-16T03:38:33;4.03;;;3.47;;
32521;SDS011;18963;51.504;5.316;2022-10-16T03:43:24;4.32;;;3.67;;
32521;SDS011;18963;51.504;5.316;2022-10-16T03:45:50;4.13;;;3.70;;
32521;SDS011;18963;51.504;5.316;2022-10-16T03:48:16;3.90;;;3.50;;
32521;SDS011;18963;51.504;5.316;2022-10-16T03:50:42;4.75;;;3.83;;
32521;SDS011;18963;51.504;5.316;2022-10-16T03:55:34;4.60;;;3.78;;
32521;SDS011;18963;51.504;5.316;2022-10-16T04:00:25;4.10;;;3.70;;
32521;SDS011;18963;51.504;5.316;2022-10-16T04:05:16;5.07;;;3.80;;
32521;SDS011;18963;51.504;5.316;2022-10-16T04:07:42;5.18;;;3.60;;
32521;SDS011;18963;51.504;5.316;2022-10-16T04:10:08;4.50;;;3.60;;
32521;SDS011;18963;51.504;5.316;2022-10-16T04:12:33;4.45;;;3.72;;
32521;SDS011;18963;51.504;5.316;2022-10-16T04:14:59;4.95;;;3.50;;
32521;SDS011;18963;51.504;5.316;2022-10-16T04:17:25;4.43;;;3.60;;
32521;SDS011;18963;51.504;5.316;2022-10-16T04:22:16;4.38;;;3.55;;
32521;SDS011;18963;51.504;5.316;2022-10-16T04:24:41;5.45;;;3.53;;
32521;SDS011;18963;51.504;5.316;2022-10-16T04:27:07;4.72;;;3.60;;
32521;SDS011;18963;51.504;5.316;2022-10-16T04:29:32;5.07;;;4.25;;
32521;SDS011;18963;51.504;5.316;2022-10-16T04:31:58;4.13;;;3.58;;
32521;SDS011;18963;51.504;5.316;2022-10-16T04:34:24;4.05;;;3.60;;
32521;SDS011;18963;51.504;5.316;2022-10-16T04:36:49;8.27;;;3.63;;
32521;SDS011;18963;51.504;5.316;2022-10-16T04:41:41;3.97;;;3.58;;
32521;SDS011;18963;51.504;5.316;2022-10-16T04:44:07;5.47;;;3.67;;
32521;SDS011;18963;51.504;5.316;2022-10-16T04:46:33;6.75;;;3.70;;
32521;SDS011;18963;51.504;5.316;2022-10-16T04:51:24;4.63;;;3.63;;
32521;SDS011;18963;51.504;5.316;2022-10-16T04:53:51;6.88;;;3.67;;
32521;SDS011;18963;51.504;5.316;2022-10-16T04:58:42;5.40;;;3.60;;
32521;SDS011;18963;51.504;5.316;2022-10-16T05:01:07;4.07;;;3.17;;
32521;SDS011;18963;51.504;5.316;2022-10-16T05:03:33;3.38;;;3.05;;
32521;SDS011;18963;51.504;5.316;2022-10-16T05:05:59;4.47;;;3.08;;
32521;SDS011;18963;51.504;5.316;2022-10-16T05:10:50;5.30;;;4.03;;
32521;SDS011;18963;51.504;5.316;2022-10-16T05:13:16;3.83;;;3.45;;
32521;SDS011;18963;51.504;5.316;2022-10-16T05:15:42;4.50;;;3.22;;
32521;SDS011;18963;51.504;5.316;2022-10-16T05:18:11;4.38;;;3.10;;
32521;SDS011;18963;51.504;5.316;2022-10-16T05:23:02;4.13;;;3.20;;
32521;SDS011;18963;51.504;5.316;2022-10-16T05:25:27;4.88;;;3.28;;
32521;SDS011;18963;51.504;5.316;2022-10-16T05:27:53;5.63;;;3.80;;
32521;SDS011;18963;51.504;5.316;2022-10-16T05:32:48;3.42;;;3.05;;
32521;SDS011;18963;51.504;5.316;2022-10-16T05:35:15;4.43;;;3.45;;
32521;SDS011;18963;51.504;5.316;2022-10-16T05:37:41;4.53;;;3.20;;
32521;SDS011;18963;51.504;5.316;2022-10-16T05:42:33;4.18;;;3.30;;
32521;SDS011;18963;51.504;5.316;2022-10-16T05:44:59;5.60;;;3.47;;
32521;SDS011;18963;51.504;5.316;2022-10-16T05:47:24;5.18;;;3.75;;
32521;SDS011;18963;51.504;5.316;2022-10-16T05:49:50;3.90;;;3.30;;
32521;SDS011;18963;51.504;5.316;2022-10-16T05:52:15;4.75;;;3.40;;
32521;SDS011;18963;51.504;5.316;2022-10-16T05:54:41;4.57;;;3.30;;
32521;SDS011;18963;51.504;5.316;2022-10-16T05:57:06;5.90;;;3.70;;
32521;SDS011;18963;51.504;5.316;2022-10-16T06:01:57;5.70;;;3.63;;
32521;SDS011;18963;51.504;5.316;2022-10-16T06:04:23;6.63;;;4.20;;
32521;SDS011;18963;51.504;5.316;2022-10-16T06:06:49;5.47;;;3.60;;
32521;SDS011;18963;51.504;5.316;2022-10-16T06:09:14;4.80;;;3.38;;
32521;SDS011;18963;51.504;5.316;2022-10-16T06:11:40;5.72;;;3.50;;
32521;SDS011;18963;51.504;5.316;2022-10-16T06:14:05;4.30;;;2.90;;
32521;SDS011;18963;51.504;5.316;2022-10-16T06:16:34;5.32;;;3.25;;
32521;SDS011;18963;51.504;5.316;2022-10-16T06:19:01;5.50;;;3.47;;
32521;SDS011;18963;51.504;5.316;2022-10-16T06:21:31;5.57;;;3.92;;
32521;SDS011;18963;51.504;5.316;2022-10-16T06:26:23;6.13;;;5.30;;
32521;SDS011;18963;51.504;5.316;2022-10-16T06:28:50;4.50;;;4.10;;
32521;SDS011;18963;51.504;5.316;2022-10-16T06:33:42;6.18;;;4.53;;
32521;SDS011;18963;51.504;5.316;2022-10-16T06:36:12;5.60;;;4.50;;
32521;SDS011;18963;51.504;5.316;2022-10-16T06:38:40;4.05;;;3.65;;
32521;SDS011;18963;51.504;5.316;2022-10-16T06:41:07;4.32;;;3.60;;
32521;SDS011;18963;51.504;5.316;2022-10-16T06:43:34;5.00;;;4.40;;
32521;SDS011;18963;51.504;5.316;2022-10-16T06:46:03;5.95;;;4.20;;
32521;SDS011;18963;51.504;5.316;2022-10-16T06:48:29;5.05;;;4.10;;
32521;SDS011;18963;51.504;5.316;2022-10-16T06:53:25;5.50;;;5.00;;
32521;SDS011;18963;51.504;5.316;2022-10-16T06:55:51;6.22;;;4.53;;
32521;SDS011;18963;51.504;5.316;2022-10-16T07:00:43;6.93;;;4.75;;
32521;SDS011;18963;51.504;5.316;2022-10-16T07:03:08;6.82;;;4.93;;
32521;SDS011;18963;51.504;5.316;2022-10-16T07:05:38;5.75;;;4.82;;
32521;SDS011;18963;51.504;5.316;2022-10-16T07:08:04;7.60;;;5.93;;
32521;SDS011;18963;51.504;5.316;2022-10-16T07:10:30;7.90;;;5.05;;
32521;SDS011;18963;51.504;5.316;2022-10-16T07:12:56;6.22;;;5.13;;
32521;SDS011;18963;51.504;5.316;2022-10-16T07:15:22;5.45;;;4.60;;
32521;SDS011;18963;51.504;5.316;2022-10-16T07:17:48;7.03;;;5.20;;
32521;SDS011;18963;51.504;5.316;2022-10-16T07:20:13;5.82;;;5.05;;
32521;SDS011;18963;51.504;5.316;2022-10-16T07:22:39;5.78;;;4.72;;
32521;SDS011;18963;51.504;5.316;2022-10-16T07:25:05;6.05;;;5.18;;
32521;SDS011;18963;51.504;5.316;2022-10-16T07:27:31;5.68;;;5.07;;
32521;SDS011;18963;51.504;5.316;2022-10-16T07:29:56;6.00;;;5.30;;
32521;SDS011;18963;51.504;5.316;2022-10-16T07:32:22;7.55;;;5.57;;
32521;SDS011;18963;51.504;5.316;2022-10-16T07:34:48;6.18;;;5.05;;
32521;SDS011;18963;51.504;5.316;2022-10-16T07:37:14;7.72;;;5.07;;
32521;SDS011;18963;51.504;5.316;2022-10-16T07:39:39;6.78;;;5.10;;
32521;SDS011;18963;51.504;5.316;2022-10-16T07:42:05;5.47;;;4.65;;
32521;SDS011;18963;51.504;5.316;2022-10-16T07:44:31;5.93;;;4.63;;
32521;SDS011;18963;51.504;5.316;2022-10-16T07:46:56;6.75;;;5.07;;
32521;SDS011;18963;51.504;5.316;2022-10-16T07:49:22;5.00;;;4.43;;
32521;SDS011;18963;51.504;5.316;2022-10-16T07:51:48;5.00;;;4.00;;
32521;SDS011;18963;51.504;5.316;2022-10-16T07:54:13;6.45;;;3.90;;
32521;SDS011;18963;51.504;5.316;2022-10-16T07:56:39;5.93;;;4.50;;
32521;SDS011;18963;51.504;5.316;2022-10-16T07:59:05;5.20;;;4.07;;
32521;SDS011;18963;51.504;5.316;2022-10-16T08:01:30;7.07;;;4.45;;
32521;SDS011;18963;51.504;5.316;2022-10-16T08:03:56;6.68;;;4.28;;
32521;SDS011;18963;51.504;5.316;2022-10-16T08:06:22;4.57;;;3.95;;
32521;SDS011;18963;51.504;5.316;2022-10-16T08:08:47;4.50;;;3.95;;
32521;SDS011;18963;51.504;5.316;2022-10-16T08:11:13;6.10;;;4.20;;
32521;SDS011;18963;51.504;5.316;2022-10-16T08:13:39;4.80;;;3.53;;
32521;SDS011;18963;51.504;5.316;2022-10-16T08:16:05;6.22;;;3.90;;
32521;SDS011;18963;51.504;5.316;2022-10-16T08:18:33;4.25;;;3.85;;
32521;SDS011;18963;51.504;5.316;2022-10-16T08:21:00;4.60;;;3.78;;
32521;SDS011;18963;51.504;5.316;2022-10-16T08:23:26;5.40;;;4.30;;
32521;SDS011;18963;51.504;5.316;2022-10-16T08:25:53;7.47;;;3.55;;
32521;SDS011;18963;51.504;5.316;2022-10-16T08:28:20;5.90;;;4.00;;
32521;SDS011;18963;51.504;5.316;2022-10-16T08:30:45;5.38;;;3.58;;
32521;SDS011;18963;51.504;5.316;2022-10-16T08:33:11;4.47;;;4.07;;
32521;SDS011;18963;51.504;5.316;2022-10-16T08:35:37;6.20;;;3.90;;
32521;SDS011;18963;51.504;5.316;2022-10-16T08:38:03;6.50;;;3.78;;
32521;SDS011;18963;51.504;5.316;2022-10-16T08:40:29;4.55;;;4.05;;
32521;SDS011;18963;51.504;5.316;2022-10-16T08:48:51;5.75;;;4.35;;
32521;SDS011;18963;51.504;5.316;2022-10-16T08:53:59;5.68;;;4.03;;
32521;SDS011;18963;51.504;5.316;2022-10-16T08:56:29;7.38;;;4.05;;
32521;SDS011;18963;51.504;5.316;2022-10-16T08:58:55;4.35;;;3.50;;
32521;SDS011;18963;51.504;5.316;2022-10-16T09:01:23;4.30;;;3.03;;
32521;SDS011;18963;51.504;5.316;2022-10-16T09:04:18;4.22;;;3.70;;
32521;SDS011;18963;51.504;5.316;2022-10-16T09:07:29;4.72;;;3.65;;
32521;SDS011;18963;51.504;5.316;2022-10-16T09:12:40;4.00;;;3.60;;
32521;SDS011;18963;51.504;5.316;2022-10-16T09:15:32;5.60;;;3.70;;
32521;SDS011;18963;51.504;5.316;2022-10-16T09:21:09;4.45;;;3.03;;
32521;SDS011;18963;51.504;5.316;2022-10-16T09:23:46;4.68;;;3.47;;
32521;SDS011;18963;51.504;5.316;2022-10-16T09:26:12;5.53;;;3.65;;
32521;SDS011;18963;51.504;5.316;2022-10-16T09:28:40;4.22;;;3.22;;
32521;SDS011;18963;51.504;5.316;2022-10-16T09:31:10;6.95;;;3.85;;
32521;SDS011;18963;51.504;5.316;2022-10-16T09:33:42;3.92;;;3.22;;
32521;SDS011;18963;51.504;5.316;2022-10-16T09:36:09;3.75;;;2.90;;
32521;SDS011;18963;51.504;5.316;2022-10-16T09:38:36;5.60;;;2.78;;
32521;SDS011;18963;51.504;5.316;2022-10-16T09:41:03;5.38;;;3.50;;
32521;SDS011;18963;51.504;5.316;2022-10-16T09:43:52;4.40;;;3.00;;
32521;SDS011;18963;51.504;5.316;2022-10-16T09:46:24;7.82;;;3.63;;
32521;SDS011;18963;51.504;5.316;2022-10-16T09:48:51;6.70;;;3.45;;
32521;SDS011;18963;51.504;5.316;2022-10-16T09:51:24;6.53;;;3.65;;
32521;SDS011;18963;51.504;5.316;2022-10-16T09:54:01;6.30;;;3.80;;
32521;SDS011;18963;51.504;5.316;2022-10-16T09:56:32;7.45;;;4.10;;
32521;SDS011;18963;51.504;5.316;2022-10-16T09:59:08;8.90;;;4.05;;
32521;SDS011;18963;51.504;5.316;2022-10-16T10:01:37;6.90;;;3.65;;
32521;SDS011;18963;51.504;5.316;2022-10-16T10:04:03;4.95;;;3.78;;
32521;SDS011;18963;51.504;5.316;2022-10-16T10:06:32;6.13;;;3.08;;
32521;SDS011;18963;51.504;5.316;2022-10-16T10:09:06;3.92;;;3.00;;
32521;SDS011;18963;51.504;5.316;2022-10-16T10:11:53;12.32;;;3.45;;
32521;SDS011;18963;51.504;5.316;2022-10-16T10:19:41;5.38;;;3.10;;
32521;SDS011;18963;51.504;5.316;2022-10-16T10:22:38;6.20;;;3.50;;
32521;SDS011;18963;51.504;5.316;2022-10-16T10:33:14;7.18;;;3.97;;
32521;SDS011;18963;51.504;5.316;2022-10-16T10:38:55;9.40;;;3.50;;
32521;SDS011;18963;51.504;5.316;2022-10-16T10:42:03;4.25;;;2.50;;
32521;SDS011;18963;51.504;5.316;2022-10-16T10:58:07;6.25;;;1.70;;
32521;SDS011;18963;51.504;5.316;2022-10-16T11:01:00;4.70;;;1.50;;
32521;SDS011;18963;51.504;5.316;2022-10-16T11:06:12;5.40;;;3.55;;
32521;SDS011;18963;51.504;5.316;2022-10-16T11:09:00;4.35;;;3.22;;
32521;SDS011;18963;51.504;5.316;2022-10-16T11:11:38;4.07;;;3.25;;
32521;SDS011;18963;51.504;5.316;2022-10-16T11:16:59;6.47;;;3.17;;
32521;SDS011;18963;51.504;5.316;2022-10-16T11:19:37;5.25;;;3.10;;
32521;SDS011;18963;51.504;5.316;2022-10-16T11:25:17;5.00;;;2.83;;
32521;SDS011;18963;51.504;5.316;2022-10-16T11:30:25;5.85;;;1.85;;
32521;SDS011;18963;51.504;5.316;2022-10-16T11:35:46;8.77;;;2.72;;
32521;SDS011;18963;51.504;5.316;2022-10-16T11:38:38;8.18;;;2.42;;
32521;SDS011;18963;51.504;5.316;2022-10-16T11:47:08;5.10;;;2.25;;
32521;SDS011;18963;51.504;5.316;2022-10-16T11:49:37;6.28;;;2.33;;
32521;SDS011;18963;51.504;5.316;2022-10-16T11:52:20;6.45;;;2.35;;
32521;SDS011;18963;51.504;5.316;2022-10-16T11:57:33;6.00;;;2.58;;
32521;SDS011;18963;51.504;5.316;2022-10-16T12:08:19;2.80;;;2.00;;
32521;SDS011;18963;51.504;5.316;2022-10-16T12:10:46;4.55;;;2.10;;
32521;SDS011;18963;51.504;5.316;2022-10-16T12:18:39;9.68;;;2.70;;
32521;SDS011;18963;51.504;5.316;2022-10-16T12:21:10;6.30;;;3.17;;
32521;SDS011;18963;51.504;5.316;2022-10-16T12:28:52;3.58;;;2.10;;
32521;SDS011;18963;51.504;5.316;2022-10-16T12:31:19;7.05;;;2.05;;
32521;SDS011;18963;51.504;5.316;2022-10-16T12:33:53;7.43;;;2.50;;
32521;SDS011;18963;51.504;5.316;2022-10-16T12:36:27;4.53;;;2.80;;
32521;SDS011;18963;51.504;5.316;2022-10-16T12:38:53;6.18;;;2.55;;
32521;SDS011;18963;51.504;5.316;2022-10-16T12:43:54;3.65;;;2.60;;
32521;SDS011;18963;51.504;5.316;2022-10-16T12:49:06;4.18;;;2.50;;
32521;SDS011;18963;51.504;5.316;2022-10-16T12:51:38;3.35;;;2.70;;
32521;SDS011;18963;51.504;5.316;2022-10-16T13:10:42;4.60;;;2.90;;
32521;SDS011;18963;51.504;5.316;2022-10-16T13:21:18;7.70;;;2.72;;
32521;SDS011;18963;51.504;5.316;2022-10-16T13:27:07;6.03;;;2.83;;
32521;SDS011;18963;51.504;5.316;2022-10-16T13:29:37;6.57;;;2.70;;
32521;SDS011;18963;51.504;5.316;2022-10-16T13:32:09;6.55;;;2.50;;
32521;SDS011;18963;51.504;5.316;2022-10-16T13:34:46;4.63;;;2.88;;
32521;SDS011;18963;51.504;5.316;2022-10-16T13:37:17;3.05;;;2.65;;
32521;SDS011;18963;51.504;5.316;2022-10-16T13:39:43;5.38;;;2.67;;
32521;SDS011;18963;51.504;5.316;2022-10-16T13:44:45;5.85;;;2.55;;
32521;SDS011;18963;51.504;5.316;2022-10-16T13:47:19;3.65;;;2.83;;
32521;SDS011;18963;51.504;5.316;2022-10-16T13:49:46;3.65;;;2.65;;
32521;SDS011;18963;51.504;5.316;2022-10-16T13:52:23;3.72;;;2.70;;
32521;SDS011;18963;51.504;5.316;2022-10-16T13:54:49;4.78;;;2.97;;
32521;SDS011;18963;51.504;5.316;2022-10-16T13:57:16;5.30;;;2.47;;
32521;SDS011;18963;51.504;5.316;2022-10-16T13:59:42;3.15;;;2.55;;
32521;SDS011;18963;51.504;5.316;2022-10-16T14:02:19;6.43;;;3.15;;
32521;SDS011;18963;51.504;5.316;2022-10-16T14:04:51;5.57;;;2.75;;
32521;SDS011;18963;51.504;5.316;2022-10-16T14:07:20;7.13;;;3.08;;
32521;SDS011;18963;51.504;5.316;2022-10-16T14:09:50;7.95;;;3.10;;
32521;SDS011;18963;51.504;5.316;2022-10-16T14:12:17;5.25;;;2.72;;
32521;SDS011;18963;51.504;5.316;2022-10-16T14:14:43;3.40;;;2.55;;
32521;SDS011;18963;51.504;5.316;2022-10-16T14:17:15;7.78;;;2.95;;
32521;SDS011;18963;51.504;5.316;2022-10-16T14:19:46;4.50;;;2.65;;
32521;SDS011;18963;51.504;5.316;2022-10-16T14:28:04;4.13;;;2.70;;
32521;SDS011;18963;51.504;5.316;2022-10-16T14:30:58;2.97;;;2.40;;
32521;SDS011;18963;51.504;5.316;2022-10-16T14:38:35;4.28;;;2.50;;
32521;SDS011;18963;51.504;5.316;2022-10-16T14:41:02;3.03;;;2.72;;
32521;SDS011;18963;51.504;5.316;2022-10-16T14:43:31;5.22;;;2.88;;
32521;SDS011;18963;51.504;5.316;2022-10-16T14:46:16;4.63;;;2.60;;
32521;SDS011;18963;51.504;5.316;2022-10-16T14:48:45;3.35;;;2.83;;
32521;SDS011;18963;51.504;5.316;2022-10-16T14:51:15;3.33;;;3.03;;
32521;SDS011;18963;51.504;5.316;2022-10-16T14:53:42;3.58;;;2.60;;
32521;SDS011;18963;51.504;5.316;2022-10-16T14:56:29;5.95;;;3.00;;
32521;SDS011;18963;51.504;5.316;2022-10-16T14:59:07;4.45;;;2.75;;
32521;SDS011;18963;51.504;5.316;2022-10-16T15:01:42;6.47;;;3.38;;
32521;SDS011;18963;51.504;5.316;2022-10-16T15:04:09;5.75;;;2.83;;
32521;SDS011;18963;51.504;5.316;2022-10-16T15:06:37;3.90;;;3.10;;
32521;SDS011;18963;51.504;5.316;2022-10-16T15:09:03;5.75;;;3.30;;
32521;SDS011;18963;51.504;5.316;2022-10-16T15:11:29;4.30;;;3.35;;
32521;SDS011;18963;51.504;5.316;2022-10-16T15:13:57;8.82;;;3.03;;
32521;SDS011;18963;51.504;5.316;2022-10-16T15:16:23;7.88;;;3.20;;
32521;SDS011;18963;51.504;5.316;2022-10-16T15:18:48;5.15;;;2.90;;
32521;SDS011;18963;51.504;5.316;2022-10-16T15:21:27;4.30;;;2.78;;
32521;SDS011;18963;51.504;5.316;2022-10-16T15:23:55;5.32;;;3.13;;
32521;SDS011;18963;51.504;5.316;2022-10-16T15:26:22;6.07;;;3.80;;
32521;SDS011;18963;51.504;5.316;2022-10-16T15:28:48;4.50;;;4.00;;
32521;SDS011;18963;51.504;5.316;2022-10-16T15:31:14;4.47;;;4.07;;
32521;SDS011;18963;51.504;5.316;2022-10-16T15:33:39;5.18;;;2.67;;
32521;SDS011;18963;51.504;5.316;2022-10-16T15:36:05;4.68;;;2.20;;
32521;SDS011;18963;51.504;5.316;2022-10-16T15:38:31;3.13;;;2.08;;
32521;SDS011;18963;51.504;5.316;2022-10-16T15:40:56;4.22;;;2.35;;
32521;SDS011;18963;51.504;5.316;2022-10-16T15:43:22;4.00;;;2.03;;
32521;SDS011;18963;51.504;5.316;2022-10-16T15:48:28;4.47;;;1.90;;
32521;SDS011;18963;51.504;5.316;2022-10-16T15:50:54;4.35;;;1.90;;
32521;SDS011;18963;51.504;5.316;2022-10-16T15:53:20;3.40;;;2.05;;
32521;SDS011;18963;51.504;5.316;2022-10-16T15:55:46;3.95;;;1.77;;
32521;SDS011;18963;51.504;5.316;2022-10-16T15:58:12;3.25;;;1.90;;
32521;SDS011;18963;51.504;5.316;2022-10-16T16:00:37;5.57;;;2.10;;
32521;SDS011;18963;51.504;5.316;2022-10-16T16:03:03;4.25;;;2.80;;
32521;SDS011;18963;51.504;5.316;2022-10-16T16:05:29;5.60;;;2.78;;
32521;SDS011;18963;51.504;5.316;2022-10-16T16:07:54;5.65;;;2.88;;
32521;SDS011;18963;51.504;5.316;2022-10-16T16:10:21;5.07;;;3.03;;
32521;SDS011;18963;51.504;5.316;2022-10-16T16:12:47;5.53;;;3.53;;
32521;SDS011;18963;51.504;5.316;2022-10-16T16:15:18;6.82;;;3.53;;
32521;SDS011;18963;51.504;5.316;2022-10-16T16:17:44;4.63;;;3.13;;
32521;SDS011;18963;51.504;5.316;2022-10-16T16:20:10;4.40;;;2.72;;
32521;SDS011;18963;51.504;5.316;2022-10-16T16:22:36;6.25;;;2.30;;
32521;SDS011;18963;51.504;5.316;2022-10-16T16:25:02;6.07;;;3.08;;
32521;SDS011;18963;51.504;5.316;2022-10-16T16:27:28;7.75;;;2.58;;
32521;SDS011;18963;51.504;5.316;2022-10-16T16:29:54;6.28;;;2.17;;
32521;SDS011;18963;51.504;5.316;2022-10-16T16:32:20;4.25;;;2.10;;
32521;SDS011;18963;51.504;5.316;2022-10-16T16:34:46;6.53;;;3.55;;
32521;SDS011;18963;51.504;5.316;2022-10-16T16:37:14;9.05;;;3.72;;
32521;SDS011;18963;51.504;5.316;2022-10-16T16:39:40;6.05;;;3.50;;
32521;SDS011;18963;51.504;5.316;2022-10-16T16:42:06;6.20;;;2.78;;
32521;SDS011;18963;51.504;5.316;2022-10-16T16:44:32;6.63;;;3.42;;
32521;SDS011;18963;51.504;5.316;2022-10-16T16:47:00;4.47;;;2.83;;
32521;SDS011;18963;51.504;5.316;2022-10-16T16:49:27;5.95;;;3.10;;
32521;SDS011;18963;51.504;5.316;2022-10-16T16:51:53;5.50;;;2.67;;
32521;SDS011;18963;51.504;5.316;2022-10-16T16:54:19;7.03;;;3.58;;
32521;SDS011;18963;51.504;5.316;2022-10-16T16:56:44;13.93;;;7.47;;
32521;SDS011;18963;51.504;5.316;2022-10-16T16:59:14;10.15;;;6.15;;
32521;SDS011;18963;51.504;5.316;2022-10-16T17:01:42;9.40;;;3.75;;
32521;SDS011;18963;51.504;5.316;2022-10-16T17:04:08;10.25;;;5.63;;
32521;SDS011;18963;51.504;5.316;2022-10-16T17:06:35;10.43;;;5.68;;
32521;SDS011;18963;51.504;5.316;2022-10-16T17:09:02;17.42;;;12.15;;
32521;SDS011;18963;51.504;5.316;2022-10-16T17:11:29;28.48;;;17.35;;
32521;SDS011;18963;51.504;5.316;2022-10-16T17:13:56;14.07;;;10.25;;
32521;SDS011;18963;51.504;5.316;2022-10-16T17:16:23;11.75;;;7.40;;
32521;SDS011;18963;51.504;5.316;2022-10-16T17:18:51;9.32;;;5.18;;
32521;SDS011;18963;51.504;5.316;2022-10-16T17:21:18;8.85;;;5.07;;
32521;SDS011;18963;51.504;5.316;2022-10-16T17:23:44;7.32;;;4.40;;
32521;SDS011;18963;51.504;5.316;2022-10-16T17:26:11;8.13;;;3.90;;
32521;SDS011;18963;51.504;5.316;2022-10-16T17:28:39;6.20;;;3.40;;
32521;SDS011;18963;51.504;5.316;2022-10-16T17:31:09;9.45;;;4.20;;
32521;SDS011;18963;51.504;5.316;2022-10-16T17:33:40;6.95;;;3.80;;
32521;SDS011;18963;51.504;5.316;2022-10-16T17:36:06;6.57;;;3.13;;
32521;SDS011;18963;51.504;5.316;2022-10-16T17:38:32;7.22;;;4.10;;
32521;SDS011;18963;51.504;5.316;2022-10-16T17:41:08;7.40;;;3.70;;
32521;SDS011;18963;51.504;5.316;2022-10-16T17:43:36;6.43;;;3.55;;
32521;SDS011;18963;51.504;5.316;2022-10-16T17:46:02;8.75;;;3.95;;
32521;SDS011;18963;51.504;5.316;2022-10-16T17:48:28;6.43;;;4.13;;
32521;SDS011;18963;51.504;5.316;2022-10-16T17:50:54;6.82;;;3.90;;
32521;SDS011;18963;51.504;5.316;2022-10-16T17:53:19;5.63;;;3.22;;
32521;SDS011;18963;51.504;5.316;2022-10-16T17:55:45;6.78;;;4.15;;
32521;SDS011;18963;51.504;5.316;2022-10-16T17:58:10;7.65;;;4.40;;
32521;SDS011;18963;51.504;5.316;2022-10-16T18:00:36;7.88;;;4.72;;
32521;SDS011;18963;51.504;5.316;2022-10-16T18:03:01;8.38;;;4.70;;
32521;SDS011;18963;51.504;5.316;2022-10-16T18:05:27;7.60;;;4.55;;
32521;SDS011;18963;51.504;5.316;2022-10-16T18:07:53;12.02;;;6.00;;
32521;SDS011;18963;51.504;5.316;2022-10-16T18:10:19;9.60;;;4.78;;
32521;SDS011;18963;51.504;5.316;2022-10-16T18:12:44;11.00;;;5.43;;
32521;SDS011;18963;51.504;5.316;2022-10-16T18:15:10;11.65;;;5.45;;
32521;SDS011;18963;51.504;5.316;2022-10-16T18:17:36;12.23;;;6.70;;
32521;SDS011;18963;51.504;5.316;2022-10-16T18:20:02;11.13;;;5.57;;
32521;SDS011;18963;51.504;5.316;2022-10-16T18:22:32;12.15;;;6.43;;